Time;durP1;ratioP1;P1;durP2;ratioP2;P2;SDS_P1;SDS_P2;PMS_P1;PMS_P2;Temp;Humidity;BMP_temperature;BMP_pressure;BME280_temperature;BME280_humidity;BME280_pressure;Samples;Min_cycle;Max_cycle;Signal;HPM_P1;HPM_P2
2023/06/27 00:01:39;;;;;;;;;;;;;;;20.32;55.42;101036.75;4138993;28;20020;-63
2023/06/27 00:03:41;;;;;;;;;;;;;;;20.27;55.72;101050.34;4133877;28;20050;-63
2023/06/27 00:05:46;;;;;;;;;;;;;;;20.25;55.99;101049.72;4139534;28;20468;-63
2023/06/27 00:07:48;;;;;;;;;;;;;;;20.21;55.84;101043.06;4137382;28;20028;-63
2023/06/27 00:09:50;;;;;;;;;;;;;;;20.13;55.90;101050.53;4137938;28;20030;-63
2023/06/27 00:11:52;;;;;;;;;;;;;;;20.10;56.13;101047.44;4139737;28;20044;-63
2023/06/27 00:13:54;;;;;;;;;;;;;;;20.10;56.30;101048.25;4138821;28;20025;-63
2023/06/27 00:16:00;;;;;;;;;;;;;;;20.09;56.32;101052.06;4139974;28;20420;-63
2023/06/27 00:18:06;;;;;;;;;;;;;;;20.07;56.27;101061.59;4138568;28;20012;-63
2023/06/27 00:20:10;;;;;;;;;;;;;;;20.06;56.54;101054.44;4138791;28;20025;-63
2023/06/27 00:22:14;;;;;;;;;;;;;;;20.03;56.57;101066.72;4139095;28;20310;-63
2023/06/27 00:24:16;;;;;;;;;;;;;;;20.03;56.71;101066.72;4137230;28;20016;-63
2023/06/27 00:26:18;;;;;;;;;;;;;;;20.03;56.75;101058.50;4133141;28;20029;-63
2023/06/27 00:28:19;;;;;;;;;;;;;;;20.02;57.14;101072.44;4135056;28;20021;-63
2023/06/27 00:30:22;;;;;;;;;;;;;;;20.01;57.27;101077.06;4121450;28;20046;-63
2023/06/27 00:32:24;;;;;;;;;;;;;;;19.98;57.37;101072.06;4138673;28;20024;-63
2023/06/27 00:34:26;;;;;;;;;;;;;;;19.96;57.66;101080.50;4136412;28;20012;-63
2023/06/27 00:36:28;;;;;;;;;;;;;;;19.94;57.50;101079.91;4122014;28;20012;-63
2023/06/27 00:38:33;;;;;;;;;;;;;;;19.89;57.71;101082.50;4121358;28;20037;-64
2023/06/27 00:40:35;;;;;;;;;;;;;;;19.87;57.93;101084.63;4138792;28;20020;-63
2023/06/27 00:42:37;;;;;;;;;;;;;;;19.89;58.25;101076.16;4138783;28;20021;-63
2023/06/27 00:44:39;;;;;;;;;;;;;;;19.86;58.21;101077.50;4127311;28;20024;-62
2023/06/27 00:46:41;;;;;;;;;;;;;;;19.86;57.88;101076.63;4137106;28;20009;-61
2023/06/27 00:48:43;;;;;;;;;;;;;;;19.86;57.99;101071.16;4122259;28;20030;-64
2023/06/27 00:50:46;;;;;;;;;;;;;;;19.84;58.13;101084.25;4138314;28;20012;-63
2023/06/27 00:52:48;;;;;;;;;;;;;;;19.77;58.23;101084.34;4133386;28;20020;-63
2023/06/27 00:54:51;;;;;;;;;;;;;;;19.69;58.58;101085.47;4121425;28;20028;-63
2023/06/27 00:56:53;;;;;;;;;;;;;;;19.68;58.87;101093.91;4138160;28;20021;-63
2023/06/27 00:58:57;;;;;;;;;;;;;;;19.66;59.03;101091.41;4121409;28;20025;-64
2023/06/27 01:01:00;;;;;;;;;;;;;;;19.62;59.10;101090.19;4128401;28;20020;-63
2023/06/27 01:03:03;;;;;;;;;;;;;;;19.61;59.09;101089.34;4137334;28;20020;-63
2023/06/27 01:05:06;;;;;;;;;;;;;;;19.61;59.37;101091.25;4136657;28;20092;-63
2023/06/27 01:07:10;;;;;;;;;;;;;;;19.60;59.39;101084.94;4137190;28;20523;-63
2023/06/27 01:09:14;;;;;;;;;;;;;;;19.61;59.36;101094.00;4135073;28;20368;-63
2023/06/27 01:11:19;;;;;;;;;;;;;;;19.58;59.60;101088.97;4137107;28;20017;-64
2023/06/27 01:13:23;;;;;;;;;;;;;;;19.53;59.85;101091.53;4138603;28;20033;-63
2023/06/27 01:15:25;;;;;;;;;;;;;;;19.53;59.98;101089.66;4138175;28;20020;-63
2023/06/27 01:17:27;;;;;;;;;;;;;;;19.54;59.60;101090.50;4136960;28;20017;-63
2023/06/27 01:19:30;;;;;;;;;;;;;;;19.53;59.64;101099.75;4134905;28;20020;-63
2023/06/27 01:21:32;;;;;;;;;;;;;;;19.51;59.69;101104.63;4120753;28;20394;-63
2023/06/27 01:23:34;;;;;;;;;;;;;;;19.47;59.81;101097.94;4138449;28;20012;-63
2023/06/27 01:25:38;;;;;;;;;;;;;;;19.42;59.68;101095.91;4136726;28;20045;-63
2023/06/27 01:27:41;;;;;;;;;;;;;;;19.40;60.08;101098.00;4138010;28;20460;-63
2023/06/27 01:29:43;;;;;;;;;;;;;;;19.43;60.25;101103.03;4138525;28;20021;-63
2023/06/27 01:31:47;;;;;;;;;;;;;;;19.42;60.11;101101.38;4135189;28;20016;-63
2023/06/27 01:33:49;;;;;;;;;;;;;;;19.37;60.22;101099.31;4137083;28;20021;-62
2023/06/27 01:35:53;;;;;;;;;;;;;;;19.33;60.27;101095.34;4136985;28;20024;-63
2023/06/27 01:37:56;;;;;;;;;;;;;;;19.27;60.44;101104.47;4137228;28;20020;-63
2023/06/27 01:40:02;;;;;;;;;;;;;;;19.24;60.76;101100.28;4135807;28;20016;-63
2023/06/27 01:42:07;;;;;;;;;;;;;;;19.21;60.99;101103.47;4138154;28;20379;-63
2023/06/27 01:44:09;;;;;;;;;;;;;;;19.21;60.96;101106.19;4138206;28;20017;-63
2023/06/27 01:46:11;;;;;;;;;;;;;;;19.21;61.02;101110.84;4136550;28;20021;-63
2023/06/27 01:48:15;;;;;;;;;;;;;;;19.17;60.95;101110.47;4136024;28;20020;-63
2023/06/27 01:50:17;;;;;;;;;;;;;;;19.12;61.25;101101.25;4137683;28;20020;-63
2023/06/27 01:52:20;;;;;;;;;;;;;;;19.03;61.53;101104.28;4138227;28;20028;-63
2023/06/27 01:54:22;;;;;;;;;;;;;;;19.02;61.71;101105.31;4134644;28;20020;-63
2023/06/27 01:56:24;;;;;;;;;;;;;;;19.01;61.78;101105.56;4134725;28;20024;-64
2023/06/27 01:58:28;;;;;;;;;;;;;;;18.99;61.66;101100.31;4120332;28;20428;-63
2023/06/27 02:00:30;;;;;;;;;;;;;;;18.95;62.02;101101.84;4132005;28;20032;-63
2023/06/27 02:02:33;;;;;;;;;;;;;;;18.93;62.00;101103.94;4137023;28;20025;-63
2023/06/27 02:04:35;;;;;;;;;;;;;;;18.88;62.17;101114.72;4137478;28;20028;-64
2023/06/27 02:06:37;;;;;;;;;;;;;;;18.85;62.22;101102.31;4137989;28;20064;-63
2023/06/27 02:08:39;;;;;;;;;;;;;;;18.79;62.48;101103.16;4133696;28;20025;-63
2023/06/27 02:10:41;;;;;;;;;;;;;;;18.75;62.77;101101.97;4120347;28;20507;-63
2023/06/27 02:12:44;;;;;;;;;;;;;;;18.69;63.04;101102.84;4138170;28;20403;-63
2023/06/27 02:14:48;;;;;;;;;;;;;;;18.68;63.13;101099.28;4137797;28;20052;-63
2023/06/27 02:16:50;;;;;;;;;;;;;;;18.65;63.34;101104.34;4132026;28;20020;-63
2023/06/27 02:18:53;;;;;;;;;;;;;;;18.59;63.29;101106.09;4135636;28;20021;-63
2023/06/27 02:20:55;;;;;;;;;;;;;;;18.56;63.74;101112.00;4135834;28;20021;-63
2023/06/27 02:22:57;;;;;;;;;;;;;;;18.52;63.62;101117.03;4131420;28;20024;-63
2023/06/27 02:24:59;;;;;;;;;;;;;;;18.50;64.02;101112.88;4137390;28;20072;-63
2023/06/27 02:27:02;;;;;;;;;;;;;;;18.46;64.07;101117.09;4136514;28;20020;-63
2023/06/27 02:29:04;;;;;;;;;;;;;;;18.40;64.23;101115.25;4136349;28;20016;-63
2023/06/27 02:31:09;;;;;;;;;;;;;;;18.34;64.37;101115.06;4137363;28;20012;-63
2023/06/27 02:33:11;;;;;;;;;;;;;;;18.31;64.62;101117.41;4137104;28;20017;-63
2023/06/27 02:35:15;;;;;;;;;;;;;;;18.29;64.77;101108.56;4137396;28;20021;-63
2023/06/27 02:37:17;;;;;;;;;;;;;;;18.26;65.23;101109.88;4137813;28;20020;-63
2023/06/27 02:39:19;;;;;;;;;;;;;;;18.26;65.09;101112.59;4130243;28;20036;-63
2023/06/27 02:41:21;;;;;;;;;;;;;;;18.22;65.41;101119.56;4137875;28;20428;-63
2023/06/27 02:43:23;;;;;;;;;;;;;;;18.19;65.89;101112.63;4136578;28;20036;-63
2023/06/27 02:45:25;;;;;;;;;;;;;;;18.22;65.78;101119.56;4129012;28;20021;-64
2023/06/27 02:47:28;;;;;;;;;;;;;;;18.21;65.74;101120.59;4139290;28;20020;-63
2023/06/27 02:49:30;;;;;;;;;;;;;;;18.17;65.90;101124.84;4139944;28;20471;-63
2023/06/27 02:51:32;;;;;;;;;;;;;;;18.14;66.18;101119.81;4141159;28;19993;-63
2023/06/27 02:53:34;;;;;;;;;;;;;;;18.10;66.67;101124.03;4133059;28;20028;-64
2023/06/27 02:55:36;;;;;;;;;;;;;;;18.07;66.80;101116.25;4140757;28;20021;-63
2023/06/27 02:57:38;;;;;;;;;;;;;;;18.06;66.82;101112.69;4140961;28;20024;-63
2023/06/27 02:59:43;;;;;;;;;;;;;;;18.03;67.02;101110.41;4121792;28;20022;-62
2023/06/27 03:01:47;;;;;;;;;;;;;;;18.03;67.05;101104.09;4123035;28;20440;-63
2023/06/27 03:03:50;;;;;;;;;;;;;;;18.01;67.12;101107.06;4123033;28;20363;-63
2023/06/27 03:05:52;;;;;;;;;;;;;;;17.97;67.18;101105.81;4137810;28;21405;-62
2023/06/27 03:07:55;;;;;;;;;;;;;;;17.97;67.40;101106.63;4139541;28;20029;-63
2023/06/27 03:09:57;;;;;;;;;;;;;;;17.97;67.28;101105.81;4141178;28;20037;-63
2023/06/27 03:11:59;;;;;;;;;;;;;;;17.97;67.29;101112.09;4140424;28;20478;-63
2023/06/27 03:14:03;;;;;;;;;;;;;;;17.91;67.31;101109.41;4122720;28;20028;-63
2023/06/27 03:16:06;;;;;;;;;;;;;;;17.87;67.64;101116.31;4123757;28;20021;-63
2023/06/27 03:18:09;;;;;;;;;;;;;;;17.88;67.56;101109.81;4139195;28;20012;-62
2023/06/27 03:20:12;;;;;;;;;;;;;;;17.87;67.80;101111.72;4140378;28;20016;-62
2023/06/27 03:22:14;;;;;;;;;;;;;;;17.88;67.59;101109.81;4138518;28;20020;-63
2023/06/27 03:24:16;;;;;;;;;;;;;;;17.88;67.63;101121.59;4138869;28;19990;-63
2023/06/27 03:26:27;;;;;;;;;;;;;;;17.88;67.63;101115.25;4123018;28;20013;-63
2023/06/27 03:28:31;;;;;;;;;;;;;;;17.89;67.54;101117.00;4122305;28;20026;-63
2023/06/27 03:30:33;;;;;;;;;;;;;;;17.87;67.25;101119.03;4139528;28;19973;-62
2023/06/27 03:32:36;;;;;;;;;;;;;;;17.84;67.25;101120.34;4135586;28;20096;-63
2023/06/27 03:34:38;;;;;;;;;;;;;;;17.80;67.32;101119.91;4129400;28;20060;-63
2023/06/27 03:36:41;;;;;;;;;;;;;;;17.81;67.39;101123.50;4137927;28;20024;-63
2023/06/27 03:38:45;;;;;;;;;;;;;;;17.80;67.27;101124.53;4130385;28;20017;-63
2023/06/27 03:40:47;;;;;;;;;;;;;;;17.77;67.31;101125.84;4138303;28;20034;-63
2023/06/27 03:42:49;;;;;;;;;;;;;;;17.75;67.40;101124.34;4137967;28;20021;-63
2023/06/27 03:44:52;;;;;;;;;;;;;;;17.71;67.48;101123.09;4138944;28;20424;-62
2023/06/27 03:46:54;;;;;;;;;;;;;;;17.69;67.52;101131.50;4122740;28;20016;-62
2023/06/27 03:48:58;;;;;;;;;;;;;;;17.69;67.78;101131.50;4132593;28;20034;-63
2023/06/27 03:51:00;;;;;;;;;;;;;;;17.71;67.59;101134.03;4137427;28;20021;-63
2023/06/27 03:53:04;;;;;;;;;;;;;;;17.69;67.36;101136.97;4140083;28;20052;-63
2023/06/27 03:55:06;;;;;;;;;;;;;;;17.68;67.27;101129.84;4138645;28;20383;-63
2023/06/27 03:57:08;;;;;;;;;;;;;;;17.65;67.27;101133.00;4136987;28;20017;-63
2023/06/27 03:59:10;;;;;;;;;;;;;;;17.62;67.38;101138.91;4121988;28;20013;-63
2023/06/27 04:01:12;;;;;;;;;;;;;;;17.61;67.65;101148.97;4138141;28;20017;-63
2023/06/27 04:03:14;;;;;;;;;;;;;;;17.61;67.51;101140.78;4121782;28;20013;-63
2023/06/27 04:05:16;;;;;;;;;;;;;;;17.58;67.64;101133.00;4122265;28;20001;-63
2023/06/27 04:07:20;;;;;;;;;;;;;;;17.57;67.63;101134.06;4137930;28;20009;-62
2023/06/27 04:09:24;;;;;;;;;;;;;;;17.57;67.70;101128.63;4122704;28;20065;-63
2023/06/27 04:11:26;;;;;;;;;;;;;;;17.57;68.09;101130.47;4137359;28;20004;-63
2023/06/27 04:13:30;;;;;;;;;;;;;;;17.57;68.00;101133.22;4137151;28;20045;-63
2023/06/27 04:15:39;;;;;;;;;;;;;;;17.55;68.07;101133.44;4135985;28;20016;-62
2023/06/27 04:17:41;;;;;;;;;;;;;;;17.50;67.83;101127.78;4139309;28;20016;-62
2023/06/27 04:19:43;;;;;;;;;;;;;;;17.52;67.91;101142.06;4137425;28;20431;-63
2023/06/27 04:21:45;;;;;;;;;;;;;;;17.51;68.10;101143.13;4122625;28;20016;-63
2023/06/27 04:23:47;;;;;;;;;;;;;;;17.52;68.11;101141.22;4135676;28;20029;-62
2023/06/27 04:26:02;;;;;;;;;;;;;;;17.54;67.91;101139.09;4138314;28;20809;-62
2023/06/27 04:28:05;;;;;;;;;;;;;;;17.53;67.99;101142.91;4138926;28;20020;-63
2023/06/27 04:30:07;;;;;;;;;;;;;;;17.51;67.83;101142.25;4138724;28;20016;-63
2023/06/27 04:32:09;;;;;;;;;;;;;;;17.51;68.04;101143.13;4136416;28;20024;-63
2023/06/27 04:34:12;;;;;;;;;;;;;;;17.52;67.97;101141.22;4136320;28;20016;-64
2023/06/27 04:36:15;;;;;;;;;;;;;;;17.51;67.95;101140.41;4139276;28;20025;-63
2023/06/27 04:38:18;;;;;;;;;;;;;;;17.51;67.83;101142.25;4139198;28;20021;-62
2023/06/27 04:40:20;;;;;;;;;;;;;;;17.50;68.00;101135.97;4137942;28;20008;-63
2023/06/27 04:42:24;;;;;;;;;;;;;;;17.50;67.99;101140.59;4137032;28;20382;-63
2023/06/27 04:44:26;;;;;;;;;;;;;;;17.50;67.90;101146.91;4138246;28;20020;-64
2023/06/27 04:46:28;;;;;;;;;;;;;;;17.48;68.14;101144.38;4138734;28;20030;-63
2023/06/27 04:48:30;;;;;;;;;;;;;;;17.47;68.24;101142.69;4138845;28;20023;-63
2023/06/27 04:50:32;;;;;;;;;;;;;;;17.48;68.22;101135.34;4138141;28;20020;-63
2023/06/27 04:52:34;;;;;;;;;;;;;;;17.47;67.95;101142.69;4138805;28;20028;-63
2023/06/27 04:54:36;;;;;;;;;;;;;;;17.47;68.18;101139.13;4134236;28;20021;-63
2023/06/27 04:56:39;;;;;;;;;;;;;;;17.50;68.21;101141.44;4139176;28;20025;-64
2023/06/27 04:58:43;;;;;;;;;;;;;;;17.52;68.07;101143.94;4139317;28;20442;-63
2023/06/27 05:00:47;;;;;;;;;;;;;;;17.50;68.15;101137.88;4138397;28;20032;-64
2023/06/27 05:02:49;;;;;;;;;;;;;;;17.47;68.18;101131.75;4137006;28;20028;-64
2023/06/27 05:04:51;;;;;;;;;;;;;;;17.47;68.22;101133.66;4138049;28;20012;-64
2023/06/27 05:06:53;;;;;;;;;;;;;;;17.50;68.28;101132.41;4138601;28;20024;-64
2023/06/27 05:08:56;;;;;;;;;;;;;;;17.51;67.92;101137.66;4120336;28;20020;-64
2023/06/27 05:10:57;;;;;;;;;;;;;;;17.51;68.04;101132.19;4120728;28;20013;-63
2023/06/27 05:13:00;;;;;;;;;;;;;;;17.48;67.86;101136.19;4138139;28;20025;-64
2023/06/27 05:15:04;;;;;;;;;;;;;;;17.46;68.00;101130.09;4136921;28;20052;-65
2023/06/27 05:17:06;;;;;;;;;;;;;;;17.48;68.13;101133.47;4137101;28;20029;-63
2023/06/27 05:19:08;;;;;;;;;;;;;;;17.51;67.98;101134.06;4137710;28;20531;-63
2023/06/27 05:21:10;;;;;;;;;;;;;;;17.53;67.88;101132.00;4136407;28;20468;-63
2023/06/27 05:23:12;;;;;;;;;;;;;;;17.52;67.95;101125.66;4136051;28;20439;-64
2023/06/27 05:25:14;;;;;;;;;;;;;;;17.55;67.76;101133.44;4138120;28;20023;-64
2023/06/27 05:27:16;;;;;;;;;;;;;;;17.58;67.78;101132.19;4137893;28;20050;-64
2023/06/27 05:29:18;;;;;;;;;;;;;;;17.60;67.68;101140.97;4134919;28;20023;-64
2023/06/27 05:31:21;;;;;;;;;;;;;;;17.61;67.70;101132.56;4138953;28;20456;-64
2023/06/27 05:33:23;;;;;;;;;;;;;;;17.60;67.76;101141.84;4136792;28;20431;-64
2023/06/27 05:35:26;;;;;;;;;;;;;;;17.57;67.58;101133.22;4137762;28;20000;-63
2023/06/27 05:37:29;;;;;;;;;;;;;;;17.53;67.98;101141.00;4139307;28;19997;-64
2023/06/27 05:39:32;;;;;;;;;;;;;;;17.56;68.13;101142.47;4136598;28;20008;-64
2023/06/27 05:41:34;;;;;;;;;;;;;;;17.60;68.26;101140.97;4137245;28;20233;-64
2023/06/27 05:43:36;;;;;;;;;;;;;;;17.64;68.03;101139.50;4137085;28;20028;-65
2023/06/27 05:45:38;;;;;;;;;;;;;;;17.69;67.91;101144.34;4135926;28;20016;-64
2023/06/27 05:47:42;;;;;;;;;;;;;;;17.70;67.91;101143.28;4136134;28;20085;-63
2023/06/27 05:49:44;;;;;;;;;;;;;;;17.72;67.99;101144.75;4132788;28;20000;-64
2023/06/27 05:51:46;;;;;;;;;;;;;;;17.73;67.68;101142.88;4136627;28;20468;-64
2023/06/27 05:53:48;;;;;;;;;;;;;;;17.78;67.48;101145.78;4136792;28;20025;-64
2023/06/27 05:55:50;;;;;;;;;;;;;;;17.79;67.41;101145.56;4136177;28;21514;-64
2023/06/27 05:57:52;;;;;;;;;;;;;;;17.82;67.18;101139.69;4137941;28;20084;-64
2023/06/27 05:59:54;;;;;;;;;;;;;;;17.83;66.94;101138.59;4137585;28;20025;-64
2023/06/27 06:01:56;;;;;;;;;;;;;;;17.81;67.00;101142.63;4137807;28;20029;-64
2023/06/27 06:03:59;;;;;;;;;;;;;;;17.83;66.80;101144.06;4137902;28;20020;-63
2023/06/27 06:06:01;;;;;;;;;;;;;;;17.80;66.55;101152.69;4136564;28;20024;-64
2023/06/27 06:08:03;;;;;;;;;;;;;;;17.80;66.48;101149.13;4138052;28;20016;-64
2023/06/27 06:10:06;;;;;;;;;;;;;;;17.82;66.40;101157.94;4137399;28;20376;-64
2023/06/27 06:12:08;;;;;;;;;;;;;;;17.83;66.18;101149.53;4138457;28;20031;-64
2023/06/27 06:14:10;;;;;;;;;;;;;;;17.85;66.01;101157.50;4134160;28;20012;-64
2023/06/27 06:16:12;;;;;;;;;;;;;;;17.89;65.90;101163.44;4137096;28;19976;-64
2023/06/27 06:18:14;;;;;;;;;;;;;;;17.93;65.59;101160.06;4137101;28;20008;-64
2023/06/27 06:20:18;;;;;;;;;;;;;;;17.95;65.56;101162.56;4139570;28;20048;-65
2023/06/27 06:22:20;;;;;;;;;;;;;;;17.97;65.55;101165.91;4140670;28;20040;-65
2023/06/27 06:24:22;;;;;;;;;;;;;;;17.98;65.37;101157.50;4140647;28;20009;-65
2023/06/27 06:26:24;;;;;;;;;;;;;;;18.00;65.35;101160.03;4141424;28;20424;-65
2023/06/27 06:28:26;;;;;;;;;;;;;;;18.02;65.35;101157.91;4141057;28;20017;-65
2023/06/27 06:30:28;;;;;;;;;;;;;;;18.07;65.51;101160.00;4139256;28;20386;-65
2023/06/27 06:32:30;;;;;;;;;;;;;;;18.09;65.30;101158.72;4139902;28;20015;-65
2023/06/27 06:34:32;;;;;;;;;;;;;;;18.11;65.32;101158.50;4140533;28;20028;-64
2023/06/27 06:36:35;;;;;;;;;;;;;;;18.08;65.15;101165.25;4139971;28;20020;-65
2023/06/27 06:38:37;;;;;;;;;;;;;;;18.08;64.85;101167.16;4139484;28;20032;-65
2023/06/27 06:40:39;;;;;;;;;;;;;;;18.10;65.09;101159.56;4138251;28;20012;-65
2023/06/27 06:42:41;;;;;;;;;;;;;;;18.12;64.57;101168.38;4140605;28;20032;-65
2023/06/27 06:44:44;;;;;;;;;;;;;;;18.10;64.30;101174.09;4137103;28;20128;-65
2023/06/27 06:46:47;;;;;;;;;;;;;;;18.11;64.16;101164.81;4137762;28;20024;-65
2023/06/27 06:48:48;;;;;;;;;;;;;;;18.10;63.83;101173.22;4138774;28;20012;-65
2023/06/27 06:50:51;;;;;;;;;;;;;;;18.08;64.11;101176.19;4137153;28;20608;-65
2023/06/27 06:52:54;;;;;;;;;;;;;;;18.11;63.96;101175.75;4139094;28;20607;-65
2023/06/27 06:54:56;;;;;;;;;;;;;;;18.13;64.05;101181.81;4139668;28;20041;-65
2023/06/27 06:56:58;;;;;;;;;;;;;;;18.19;63.94;101170.03;4139025;28;20035;-65
2023/06/27 06:59:01;;;;;;;;;;;;;;;18.23;63.68;101169.59;4138709;28;20013;-66
2023/06/27 07:01:04;;;;;;;;;;;;;;;18.26;63.63;101171.88;4140813;28;19972;-65
2023/06/27 07:03:08;;;;;;;;;;;;;;;18.26;63.22;101169.16;4139562;28;20008;-65
2023/06/27 07:05:12;;;;;;;;;;;;;;;18.28;63.24;101175.28;4139586;28;20017;-65
2023/06/27 07:07:14;;;;;;;;;;;;;;;18.31;63.52;101164.72;4140853;28;20024;-65
2023/06/27 07:09:17;;;;;;;;;;;;;;;18.33;63.43;101164.50;4140402;28;20017;-65
2023/06/27 07:11:19;;;;;;;;;;;;;;;18.39;63.40;101157.34;4141285;28;20462;-65
2023/06/27 07:13:21;;;;;;;;;;;;;;;18.43;63.16;101153.09;4140161;28;19953;-65
2023/06/27 07:15:23;;;;;;;;;;;;;;;18.45;62.59;101156.44;4139897;28;20367;-66
2023/06/27 07:17:26;;;;;;;;;;;;;;;18.44;62.10;101157.50;4138726;28;20017;-65
2023/06/27 07:19:28;;;;;;;;;;;;;;;18.43;62.13;101153.09;4139008;28;20052;-66
2023/06/27 07:21:30;;;;;;;;;;;;;;;18.43;61.72;101155.81;4140249;28;20064;-65
2023/06/27 07:23:32;;;;;;;;;;;;;;;18.46;61.76;101161.69;4139750;28;20017;-65
2023/06/27 07:25:36;;;;;;;;;;;;;;;18.48;61.54;101150.53;4122579;28;20044;-65
2023/06/27 07:27:38;;;;;;;;;;;;;;;18.53;61.54;101156.19;4139672;28;20032;-65
2023/06/27 07:29:40;;;;;;;;;;;;;;;18.59;61.29;101159.94;4139591;28;20009;-65
2023/06/27 07:31:42;;;;;;;;;;;;;;;18.62;60.61;101154.88;4138782;28;20384;-65
2023/06/27 07:33:44;;;;;;;;;;;;;;;18.63;60.31;101148.31;4140636;28;20049;-65
2023/06/27 07:35:46;;;;;;;;;;;;;;;18.67;60.50;101152.31;4137416;28;20033;-66
2023/06/27 07:37:48;;;;;;;;;;;;;;;18.72;60.49;101157.94;4139897;28;20212;-66
2023/06/27 07:39:50;;;;;;;;;;;;;;;18.79;60.29;101148.84;4139514;28;20036;-65
2023/06/27 07:41:54;;;;;;;;;;;;;;;18.83;60.28;101141.88;4139981;28;20021;-64
2023/06/27 07:43:55;;;;;;;;;;;;;;;18.86;59.84;101142.31;4136974;28;20008;-65
2023/06/27 07:45:57;;;;;;;;;;;;;;;18.90;59.78;101134.47;4139092;28;19961;-65
2023/06/27 07:47:59;;;;;;;;;;;;;;;18.95;59.86;101142.88;4139752;28;20382;-65
2023/06/27 07:50:02;;;;;;;;;;;;;;;18.96;59.36;101139.06;4139370;28;20017;-65
2023/06/27 07:52:04;;;;;;;;;;;;;;;19.00;59.25;101129.34;4139471;28;20368;-65
2023/06/27 07:54:06;;;;;;;;;;;;;;;19.04;59.03;101138.81;4139104;28;20033;-65
2023/06/27 07:56:08;;;;;;;;;;;;;;;19.04;58.57;101141.53;4139663;28;20388;-65
2023/06/27 07:58:11;;;;;;;;;;;;;;;18.98;58.61;101136.97;4139849;28;20024;-65
2023/06/27 08:00:14;;;;;;;;;;;;;;;18.95;58.91;101129.19;4138969;28;20016;-66
2023/06/27 08:02:16;;;;;;;;;;;;;;;18.97;59.14;101137.19;4138889;28;20020;-66
2023/06/27 08:04:18;;;;;;;;;;;;;;;18.98;58.84;101134.22;4139288;28;20032;-65
2023/06/27 08:06:19;;;;;;;;;;;;;;;19.00;58.62;101129.34;4139604;28;20356;-65
2023/06/27 08:08:22;;;;;;;;;;;;;;;19.01;58.48;101128.31;4139331;28;20029;-65
2023/06/27 08:10:25;;;;;;;;;;;;;;;19.05;58.49;101129.50;4138700;28;20012;-65
2023/06/27 08:12:27;;;;;;;;;;;;;;;19.08;58.37;101122.75;4136623;28;20028;-65
2023/06/27 08:14:30;;;;;;;;;;;;;;;19.13;58.03;101128.41;4137426;28;20004;-65
2023/06/27 08:16:33;;;;;;;;;;;;;;;19.14;57.38;101121.88;4137429;28;20067;-65
2023/06/27 08:18:35;;;;;;;;;;;;;;;19.15;56.72;101119.97;4138350;28;20025;-65
2023/06/27 08:20:37;;;;;;;;;;;;;;;19.15;56.44;101129.00;4138731;28;20020;-65
2023/06/27 08:22:39;;;;;;;;;;;;;;;19.13;56.15;101111.97;4139801;28;20028;-65
2023/06/27 08:24:41;;;;;;;;;;;;;;;19.12;56.39;101120.41;4136736;28;20020;-65
2023/06/27 08:26:45;;;;;;;;;;;;;;;19.12;56.19;101113.03;4122536;28;20008;-65
2023/06/27 08:28:47;;;;;;;;;;;;;;;19.14;56.33;101110.91;4137428;28;20464;-65
2023/06/27 08:30:50;;;;;;;;;;;;;;;19.15;56.29;101114.47;4138239;28;19933;-64
2023/06/27 08:32:53;;;;;;;;;;;;;;;19.16;56.12;101105.22;4139005;28;20370;-65
2023/06/27 08:34:54;;;;;;;;;;;;;;;19.18;56.72;101119.50;4138546;28;20024;-65
2023/06/27 08:36:56;;;;;;;;;;;;;;;19.19;56.99;101112.97;4139507;28;20012;-65
2023/06/27 08:38:58;;;;;;;;;;;;;;;19.20;56.21;101110.03;4138217;28;20020;-65
2023/06/27 08:41:01;;;;;;;;;;;;;;;19.21;56.07;101108.09;4138466;28;20366;-65
2023/06/27 08:43:03;;;;;;;;;;;;;;;19.23;56.35;101115.03;4135860;28;20056;-65
2023/06/27 08:45:06;;;;;;;;;;;;;;;19.22;56.54;101109.78;4138812;28;20008;-65
2023/06/27 08:47:09;;;;;;;;;;;;;;;19.20;56.78;101107.28;4128325;28;20016;-65
2023/06/27 08:49:11;;;;;;;;;;;;;;;19.18;56.77;101098.44;4138012;28;20467;-65
2023/06/27 08:51:13;;;;;;;;;;;;;;;19.18;56.70;101097.59;4138965;28;20013;-65
2023/06/27 08:53:17;;;;;;;;;;;;;;;19.19;57.07;101097.38;4139147;28;20032;-65
2023/06/27 08:55:20;;;;;;;;;;;;;;;19.25;56.83;101095.66;4138875;28;20369;-65
2023/06/27 08:57:22;;;;;;;;;;;;;;;19.26;56.31;101092.69;4134988;28;20028;-64
2023/06/27 08:59:25;;;;;;;;;;;;;;;19.24;55.56;101097.53;4138476;28;20016;-65
2023/06/27 09:01:27;;;;;;;;;;;;;;;19.23;55.34;101109.56;4138524;28;20024;-65
2023/06/27 09:03:30;;;;;;;;;;;;;;;19.21;55.21;101089.78;4137919;28;20032;-65
2023/06/27 09:05:33;;;;;;;;;;;;;;;19.20;55.18;101100.94;4138659;28;20385;-65
2023/06/27 09:07:34;;;;;;;;;;;;;;;19.20;55.17;101093.59;4138555;28;20376;-65
2023/06/27 09:09:36;;;;;;;;;;;;;;;19.16;55.57;101089.63;4139227;28;20052;-65
2023/06/27 09:11:39;;;;;;;;;;;;;;;19.18;55.92;101090.22;4138500;28;20374;-65
2023/06/27 09:13:41;;;;;;;;;;;;;;;19.24;56.21;101083.00;4137879;28;20432;-65
2023/06/27 09:15:43;;;;;;;;;;;;;;;19.29;55.37;101083.16;4137620;28;20025;-65
2023/06/27 09:17:45;;;;;;;;;;;;;;;19.29;54.47;101077.69;4137826;28;20033;-64
2023/06/27 09:19:48;;;;;;;;;;;;;;;19.29;54.24;101079.59;4137438;28;20008;-65
2023/06/27 09:21:50;;;;;;;;;;;;;;;19.25;54.31;101074.56;4138106;28;20020;-64
2023/06/27 09:23:52;;;;;;;;;;;;;;;19.29;54.79;101077.69;4137615;28;20013;-64
2023/06/27 09:26:07;;;;;;;;;;;;;;;19.34;54.77;101088.81;4138318;28;20436;-63
2023/06/27 09:28:17;;;;;;;;;;;;;;;19.37;54.33;101074.69;4133907;28;20025;-64
2023/06/27 09:30:19;;;;;;;;;;;;;;;19.38;54.49;101065.38;4135484;28;20021;-64
2023/06/27 09:32:21;;;;;;;;;;;;;;;19.41;54.68;101064.09;4136124;28;20024;-63
2023/06/27 09:34:23;;;;;;;;;;;;;;;19.43;54.77;101075.66;4137791;28;20028;-64
2023/06/27 09:36:33;;;;;;;;;;;;;;;19.41;55.17;101086.00;4136123;28;20024;-63
2023/06/27 09:38:35;;;;;;;;;;;;;;;19.39;55.68;101110.88;4137542;28;20016;-65
2023/06/27 09:40:37;;;;;;;;;;;;;;;19.35;55.75;101101.44;4138021;28;20465;-66
2023/06/27 09:42:41;;;;;;;;;;;;;;;19.31;56.09;101107.59;4138195;28;20024;-65
2023/06/27 09:44:43;;;;;;;;;;;;;;;19.24;55.98;101111.22;4132335;28;20041;-65
2023/06/27 09:46:45;;;;;;;;;;;;;;;19.18;57.08;101101.16;4137071;28;20316;-65
2023/06/27 09:48:47;;;;;;;;;;;;;;;19.14;58.03;101097.22;4137674;28;20024;-65
2023/06/27 09:50:49;;;;;;;;;;;;;;;19.07;58.91;101096.44;4137041;28;20287;-66
2023/06/27 09:52:53;;;;;;;;;;;;;;;19.03;59.09;101098.81;4135141;28;20028;-65
2023/06/27 09:54:57;;;;;;;;;;;;;;;19.01;60.33;101097.34;4136062;28;20456;-65
2023/06/27 09:56:59;;;;;;;;;;;;;;;19.00;60.25;101098.41;4138086;28;20037;-65
2023/06/27 09:59:08;;;;;;;;;;;;;;;18.99;60.14;101097.56;4137685;28;20363;-65
2023/06/27 10:01:10;;;;;;;;;;;;;;;19.01;60.22;101089.97;4137484;28;20032;-65
2023/06/27 10:03:12;;;;;;;;;;;;;;;19.04;60.55;101089.53;4120374;28;20029;-66
2023/06/27 10:05:14;;;;;;;;;;;;;;;19.11;60.15;101085.88;4137167;28;20037;-65
2023/06/27 10:07:16;;;;;;;;;;;;;;;19.16;60.11;101072.38;4137894;28;20020;-65
2023/06/27 10:09:20;;;;;;;;;;;;;;;19.22;60.09;101071.47;4135206;28;20035;-65
2023/06/27 10:11:25;;;;;;;;;;;;;;;19.30;60.13;101064.84;4136959;28;20016;-65
2023/06/27 10:13:27;;;;;;;;;;;;;;;19.38;60.43;101064.53;4115497;28;20024;-64
2023/06/27 10:15:29;;;;;;;;;;;;;;;19.44;60.09;101066.38;4136376;28;20036;-65
2023/06/27 10:17:31;;;;;;;;;;;;;;;19.47;60.13;101051.38;4136267;28;20032;-65
2023/06/27 10:19:34;;;;;;;;;;;;;;;19.51;60.03;101056.16;4134285;28;20021;-64
2023/06/27 10:21:36;;;;;;;;;;;;;;;19.56;59.44;101053.59;4137849;28;20020;-64
2023/06/27 10:23:39;;;;;;;;;;;;;;;19.61;59.29;101048.25;4138067;28;20055;-65
2023/06/27 10:25:42;;;;;;;;;;;;;;;19.67;58.97;101054.72;4138322;28;20024;-66
2023/06/27 10:27:44;;;;;;;;;;;;;;;19.70;58.81;101062.50;4138552;28;20012;-65
2023/06/27 10:29:46;;;;;;;;;;;;;;;19.71;58.50;101052.34;4136081;28;20431;-65